Time;durP1;ratioP1;P1;durP2;ratioP2;P2;SDS_P1;SDS_P2;PMS_P1;PMS_P2;Temp;Humidity;BMP_temperature;BMP_pressure;BME280_temperature;BME280_humidity;BME280_pressure;Samples;Min_cycle;Max_cycle;Signal;HPM_P1;HPM_P2
2023/12/03 00:00:43;;;;;;;11.88;4.70;;;;;;;-4.49;100.00;94060.72;5048261;28;20047;-63
2023/12/03 00:03:11;;;;;;;10.63;4.70;;;;;;;-4.30;100.00;94068.44;5049033;28;20053;-61
2023/12/03 00:05:39;;;;;;;12.02;5.32;;;;;;;-4.18;100.00;94062.44;5048536;28;20047;-61
2023/12/03 00:08:07;;;;;;;11.23;5.18;;;;;;;-4.13;100.00;94067.59;5049045;28;20453;-61
2023/12/03 00:10:34;;;;;;;11.68;5.63;;;;;;;-4.07;100.00;94069.00;5048251;28;20045;-61
2023/12/03 00:13:00;;;;;;;12.07;5.22;;;;;;;-4.04;100.00;94067.59;5049096;28;20045;-61
2023/12/03 00:15:27;;;;;;;19.90;7.88;;;;;;;-4.10;100.00;94071.56;5048160;28;20045;-61
2023/12/03 00:17:54;;;;;;;16.02;7.03;;;;;;;-4.21;100.00;94079.13;5048851;28;20041;-62
2023/12/03 00:20:21;;;;;;;15.43;6.85;;;;;;;-4.24;100.00;94083.25;5048191;28;20041;-62
2023/12/03 00:22:49;;;;;;;15.77;7.03;;;;;;;-4.25;100.00;94078.97;5048512;28;20482;-62
2023/12/03 00:25:16;;;;;;;19.98;8.90;;;;;;;-4.26;100.00;94085.47;5048498;28;20049;-61
2023/12/03 00:27:43;;;;;;;16.98;7.57;;;;;;;-4.39;100.00;94081.03;5048104;28;20053;-61
2023/12/03 00:30:10;;;;;;;14.18;6.72;;;;;;;-4.26;100.00;94096.16;5046592;28;20076;-61
2023/12/03 00:32:37;;;;;;;16.00;7.53;;;;;;;-4.23;100.00;94098.19;5048659;28;20580;-63
2023/12/03 00:35:05;;;;;;;20.75;8.85;;;;;;;-4.08;100.00;94101.50;5047400;28;20061;-62
2023/12/03 00:37:32;;;;;;;16.50;6.85;;;;;;;-4.03;100.00;94104.78;5048138;28;20539;-61
2023/12/03 00:39:58;;;;;;;14.68;6.45;;;;;;;-4.30;100.00;94094.44;5048819;28;20033;-61
2023/12/03 00:42:25;;;;;;;12.20;5.25;;;;;;;-4.14;100.00;94092.84;5048049;28;20565;-61
2023/12/03 00:44:52;;;;;;;11.85;5.05;;;;;;;-4.03;100.00;94091.38;5047027;28;20049;-61
2023/12/03 00:47:19;;;;;;;10.75;4.93;;;;;;;-4.04;100.00;94089.06;5048651;28;20041;-63
2023/12/03 00:49:45;;;;;;;12.32;5.72;;;;;;;-4.46;100.00;94092.25;5047074;28;21457;-62
2023/12/03 00:52:12;;;;;;;14.05;5.20;;;;;;;-4.75;100.00;94097.44;5048326;28;20037;-61
2023/12/03 00:54:39;;;;;;;11.57;4.78;;;;;;;-4.43;100.00;94098.84;5048826;28;20540;-61
2023/12/03 00:57:06;;;;;;;10.43;4.90;;;;;;;-4.43;100.00;94109.56;5051987;28;20043;-61
2023/12/03 00:59:33;;;;;;;11.52;5.25;;;;;;;-4.34;100.00;94101.56;5051734;28;20094;-61
2023/12/03 01:02:00;;;;;;;12.88;5.15;;;;;;;-4.34;100.00;94104.22;5051937;28;20049;-61
2023/12/03 01:04:27;;;;;;;29.17;9.63;;;;;;;-4.21;100.00;94111.28;5051073;28;20044;-63
2023/12/03 01:06:54;;;;;;;16.15;6.30;;;;;;;-4.24;100.00;94114.63;5051934;28;20409;-62
2023/12/03 01:09:21;;;;;;;12.20;5.70;;;;;;;-4.18;100.00;94113.34;5051337;28;20045;-59
2023/12/03 01:11:48;;;;;;;12.27;5.85;;;;;;;-4.13;100.00;94115.84;5051683;28;20086;-64
2023/12/03 01:14:15;;;;;;;11.82;5.35;;;;;;;-4.28;100.00;94113.69;5038872;28;20596;-62
2023/12/03 01:16:42;;;;;;;10.60;4.90;;;;;;;-4.26;100.00;94122.19;5051167;28;20524;-62
2023/12/03 01:19:08;;;;;;;11.00;5.15;;;;;;;-4.37;100.00;94118.25;5051644;28;20041;-61
2023/12/03 01:21:35;;;;;;;11.98;5.20;;;;;;;-4.36;100.00;94119.84;5049183;28;20049;-62
2023/12/03 01:24:02;;;;;;;10.98;5.00;;;;;;;-4.32;100.00;94120.78;5050502;28;20070;-61
2023/12/03 01:26:29;;;;;;;12.35;5.22;;;;;;;-4.22;100.00;94120.44;5050929;28;20105;-61
2023/12/03 01:28:57;;;;;;;11.95;5.35;;;;;;;-4.28;100.00;94119.03;5051559;28;20044;-61
2023/12/03 01:31:24;;;;;;;9.40;4.57;;;;;;;-4.36;100.00;94123.28;5050669;28;20044;-61
2023/12/03 01:33:51;;;;;;;12.57;5.47;;;;;;;-4.35;100.00;94129.44;5051670;28;20053;-62
2023/12/03 01:36:18;;;;;;;11.73;4.85;;;;;;;-4.34;100.00;94131.03;5051463;28;20041;-62
2023/12/03 01:38:45;;;;;;;9.88;4.30;;;;;;;-4.43;100.00;94131.81;5051113;28;20063;-61
2023/12/03 01:41:11;;;;;;;11.93;5.20;;;;;;;-4.50;100.00;94125.34;5051050;28;20045;-61
2023/12/03 01:43:52;;;;;;;11.05;5.20;;;;;;;-4.35;100.00;94132.09;5050526;28;20469;-62
2023/12/03 01:46:20;;;;;;;11.80;4.82;;;;;;;-4.29;100.00;94130.84;5050897;28;20037;-61
2023/12/03 01:48:48;;;;;;;24.80;10.15;;;;;;;-4.27;100.00;94134.00;5049190;28;20224;-61
2023/12/03 01:51:15;;;;;;;14.70;5.70;;;;;;;-4.83;100.00;94131.13;5050660;28;20049;-61
2023/12/03 01:53:43;;;;;;;13.73;5.75;;;;;;;-4.78;100.00;94136.34;5043680;28;20041;-61
2023/12/03 01:56:11;;;;;;;11.27;5.38;;;;;;;-4.62;100.00;94142.03;5049266;28;20106;-63
2023/12/03 01:58:37;;;;;;;11.75;4.93;;;;;;;-4.66;100.00;94141.09;5050393;28;20064;-62
2023/12/03 02:01:05;;;;;;;13.65;6.13;;;;;;;-4.56;100.00;94135.41;5050650;28;20393;-61
2023/12/03 02:03:32;;;;;;;11.70;5.20;;;;;;;-4.55;100.00;94147.69;5050743;28;20079;-62
2023/12/03 02:06:04;;;;;;;12.38;5.35;;;;;;;-4.52;100.00;94144.41;5050518;28;20043;-62
2023/12/03 02:08:31;;;;;;;12.75;5.93;;;;;;;-4.71;100.00;94146.59;5050498;28;20053;-61
2023/12/03 02:10:59;;;;;;;14.18;6.15;;;;;;;-4.77;100.00;94139.81;5050260;28;20043;-61
2023/12/03 02:13:31;;;;;;;11.13;5.40;;;;;;;-4.78;100.00;94147.06;5050281;28;20045;-63
2023/12/03 02:15:58;;;;;;;10.77;4.90;;;;;;;-5.21;100.00;94147.75;5050769;28;20049;-61
2023/12/03 02:18:26;;;;;;;11.55;5.22;;;;;;;-5.28;100.00;94140.16;5050183;28;20435;-61
2023/12/03 02:20:56;;;;;;;11.82;5.30;;;;;;;-5.34;100.00;94137.94;5050758;28;20039;-61
2023/12/03 02:23:26;;;;;;;17.23;7.03;;;;;;;-5.47;100.00;94136.97;5049672;28;20412;-61
2023/12/03 02:25:53;;;;;;;14.25;5.60;;;;;;;-5.72;100.00;94133.06;5050376;28;20044;-61
2023/12/03 02:28:20;;;;;;;15.55;6.32;;;;;;;-5.78;100.00;94140.41;5049999;28;20383;-62
2023/12/03 02:30:47;;;;;;;14.80;6.68;;;;;;;-5.83;100.00;94141.34;5049655;28;20667;-62
2023/12/03 02:33:14;;;;;;;25.27;9.93;;;;;;;-5.88;100.00;94146.03;5049861;28;20041;-63
2023/12/03 02:35:40;;;;;;;19.77;7.30;;;;;;;-5.96;100.00;94144.13;5049743;28;20122;-61
2023/12/03 02:38:08;;;;;;;13.15;5.60;;;;;;;-6.09;100.00;94146.56;5049806;28;20045;-61
2023/12/03 02:40:38;;;;;;;11.48;4.55;;;;;;;-6.30;100.00;94142.81;5049564;28;20557;-61
2023/12/03 02:43:04;;;;;;;11.30;4.28;;;;;;;-6.39;100.00;94145.41;5050429;28;20033;-61
2023/12/03 02:45:31;;;;;;;9.63;4.00;;;;;;;-6.58;100.00;94144.78;5049551;28;20059;-61
2023/12/03 02:47:58;;;;;;;12.75;5.13;;;;;;;-6.68;100.00;94145.81;5049789;28;20119;-61
2023/12/03 02:50:25;;;;;;;9.95;4.25;;;;;;;-6.68;100.00;94157.28;5049561;28;20097;-62
2023/12/03 02:52:52;;;;;;;10.68;4.05;;;;;;;-6.95;100.00;94154.69;5047294;28;20049;-62
2023/12/03 02:55:19;;;;;;;11.10;4.18;;;;;;;-6.93;100.00;94155.16;5049964;28;20045;-62
2023/12/03 02:57:45;;;;;;;11.68;4.55;;;;;;;-7.02;100.00;94163.09;5049443;28;20051;-61
2023/12/03 03:00:12;;;;;;;10.10;3.95;;;;;;;-7.04;100.00;94163.38;5049811;28;20379;-61
2023/12/03 03:02:39;;;;;;;10.60;4.40;;;;;;;-7.06;100.00;94162.91;5049385;28;20041;-61
2023/12/03 03:05:06;;;;;;;11.63;4.55;;;;;;;-7.10;100.00;94153.09;5049918;28;20045;-61
2023/12/03 03:07:33;;;;;;;12.70;4.50;;;;;;;-7.07;100.00;94157.84;5049271;28;20040;-62
2023/12/03 03:10:00;;;;;;;10.13;3.90;;;;;;;-7.21;100.00;94167.75;5049436;28;20041;-61
2023/12/03 03:12:27;;;;;;;8.30;3.58;;;;;;;-7.29;100.00;94163.91;5048968;28;20045;-61
2023/12/03 03:14:53;;;;;;;10.35;4.40;;;;;;;-7.40;100.00;94168.66;5049551;28;20045;-61
2023/12/03 03:17:20;;;;;;;8.75;4.13;;;;;;;-7.36;100.00;94166.16;5049217;28;20049;-61
2023/12/03 03:19:47;;;;;;;18.55;7.38;;;;;;;-7.38;100.00;94155.81;5048030;28;20782;-61
2023/12/03 03:22:14;;;;;;;17.40;6.40;;;;;;;-7.40;100.00;94157.97;5049233;28;20060;-61
2023/12/03 03:24:41;;;;;;;13.10;5.30;;;;;;;-7.48;100.00;94170.13;5048829;28;20410;-61
2023/12/03 03:27:08;;;;;;;9.55;3.78;;;;;;;-7.49;100.00;94165.84;5049211;28;20550;-61
2023/12/03 03:29:35;;;;;;;9.38;4.00;;;;;;;-7.62;100.00;94164.00;5049079;28;20094;-61
2023/12/03 03:32:02;;;;;;;10.25;4.25;;;;;;;-7.60;100.00;94161.81;5049372;28;20084;-64
2023/12/03 03:34:29;;;;;;;11.50;4.55;;;;;;;-7.68;100.00;94163.28;5041020;28;20059;-61
2023/12/03 03:36:56;;;;;;;11.43;4.57;;;;;;;-7.73;100.00;94171.34;5049180;28;20078;-63
2023/12/03 03:39:23;;;;;;;11.77;4.60;;;;;;;-7.75;100.00;94168.19;5048790;28;20498;-59
2023/12/03 03:41:49;;;;;;;11.93;4.78;;;;;;;-7.77;100.00;94174.91;5049084;28;20543;-61
2023/12/03 03:44:16;;;;;;;10.27;4.20;;;;;;;-7.77;100.00;94173.03;5049011;28;20456;-63
2023/12/03 03:46:43;;;;;;;10.43;4.18;;;;;;;-7.76;100.00;94174.63;5047013;28;20049;-62
2023/12/03 03:49:09;;;;;;;12.30;4.68;;;;;;;-7.90;100.00;94179.16;5049007;28;20438;-62
2023/12/03 03:51:36;;;;;;;11.68;4.40;;;;;;;-7.92;100.00;94184.75;5048557;28;20057;-61
2023/12/03 03:54:03;;;;;;;11.60;3.97;;;;;;;-7.97;100.00;94176.84;5049277;28;20041;-61
2023/12/03 03:56:30;;;;;;;9.77;3.90;;;;;;;-8.02;100.00;94186.81;5048593;28;20429;-61
2023/12/03 03:58:56;;;;;;;11.13;4.63;;;;;;;-8.15;100.00;94186.44;5047824;28;20059;-61
2023/12/03 04:01:23;;;;;;;10.05;3.70;;;;;;;-8.22;100.00;94191.38;5046333;28;20051;-61
2023/12/03 04:03:50;;;;;;;9.43;3.63;;;;;;;-8.23;100.00;94193.25;5047882;28;20117;-61
2023/12/03 04:06:17;;;;;;;9.07;4.03;;;;;;;-8.19;100.00;94198.78;5048536;28;20040;-61
2023/12/03 04:08:44;;;;;;;10.48;4.00;;;;;;;-8.31;100.00;94201.09;5047827;28;20049;-62
2023/12/03 04:11:10;;;;;;;10.20;4.20;;;;;;;-8.32;100.00;94202.19;5048337;28;20048;-61
2023/12/03 04:13:37;;;;;;;11.32;4.28;;;;;;;-8.35;100.00;94200.91;5047779;28;20045;-61
2023/12/03 04:16:04;;;;;;;10.25;4.32;;;;;;;-8.40;100.00;94203.63;5047918;28;20051;-63
2023/12/03 04:18:31;;;;;;;11.30;4.63;;;;;;;-8.39;100.00;94205.22;5044426;28;20056;-61
2023/12/03 04:20:59;;;;;;;12.23;4.57;;;;;;;-8.46;100.00;94208.25;5047692;28;20047;-61
2023/12/03 04:23:26;;;;;;;11.13;4.10;;;;;;;-8.46;100.00;94216.25;5047101;28;20037;-61
2023/12/03 04:25:53;;;;;;;10.35;4.10;;;;;;;-8.49;100.00;94216.03;5046427;28;20037;-61
2023/12/03 04:28:20;;;;;;;10.63;4.40;;;;;;;-8.54;100.00;94216.91;5047821;28;20049;-61
2023/12/03 04:30:46;;;;;;;9.57;4.35;;;;;;;-8.56;100.00;94223.59;5049691;28;20204;-64
2023/12/03 04:33:13;;;;;;;12.38;4.55;;;;;;;-8.70;100.00;94216.31;5052082;28;20045;-62
2023/12/03 04:35:40;;;;;;;11.00;4.30;;;;;;;-8.86;100.00;94217.59;5051608;28;20049;-61
2023/12/03 04:38:07;;;;;;;11.25;4.63;;;;;;;-9.08;100.00;94226.13;5051544;28;20052;-61
2023/12/03 04:40:33;;;;;;;12.10;4.40;;;;;;;-8.97;100.00;94221.44;5051341;28;20204;-62
2023/12/03 04:43:00;;;;;;;11.85;4.50;;;;;;;-9.07;100.00;94227.72;5051531;28;20049;-61
2023/12/03 04:45:27;;;;;;;11.70;4.20;;;;;;;-9.07;100.00;94225.06;5051084;28;20047;-61
2023/12/03 04:47:53;;;;;;;12.32;4.72;;;;;;;-9.05;100.00;94226.34;5051651;28;20405;-61
2023/12/03 04:50:20;;;;;;;12.75;4.45;;;;;;;-9.09;100.00;94232.53;5051375;28;20533;-62
2023/12/03 04:52:47;;;;;;;9.82;4.30;;;;;;;-9.04;100.00;94229.78;5049308;28;20051;-62
2023/12/03 04:55:14;;;;;;;11.02;4.47;;;;;;;-9.00;100.00;94235.34;5051601;28;20037;-62
2023/12/03 04:57:40;;;;;;;15.68;5.65;;;;;;;-9.07;100.00;94241.78;5051066;28;20045;-62
2023/12/03 05:00:08;;;;;;;14.20;5.20;;;;;;;-9.15;100.00;94244.28;5050379;28;20045;-61
2023/12/03 05:02:35;;;;;;;13.30;5.15;;;;;;;-9.16;100.00;94242.69;5051574;28;20456;-61
2023/12/03 05:05:01;;;;;;;13.02;4.60;;;;;;;-9.24;100.00;94238.78;5051813;28;20049;-61
2023/12/03 05:07:28;;;;;;;13.95;4.68;;;;;;;-9.28;100.00;94240.44;5051335;28;20616;-61
2023/12/03 05:09:55;;;;;;;11.75;4.45;;;;;;;-9.30;100.00;94247.91;5051907;28;20451;-61
2023/12/03 05:12:22;;;;;;;12.32;4.70;;;;;;;-9.32;100.00;94240.19;5051345;28;20063;-60
2023/12/03 05:14:48;;;;;;;11.10;4.45;;;;;;;-9.36;100.00;94247.16;5051672;28;20037;-61
2023/12/03 05:17:15;;;;;;;10.90;4.80;;;;;;;-9.37;100.00;94244.81;5050201;28;20037;-61
2023/12/03 05:19:43;;;;;;;12.52;4.90;;;;;;;-9.34;100.00;94254.84;5051188;28;20513;-61
2023/12/03 05:22:10;;;;;;;10.88;4.00;;;;;;;-9.34;100.00;94252.97;5049939;28;20052;-62
2023/12/03 05:24:37;;;;;;;11.45;4.47;;;;;;;-9.41;100.00;94252.53;5050730;28;20045;-63
2023/12/03 05:27:04;;;;;;;12.63;4.85;;;;;;;-9.47;100.00;94254.44;5050203;28;20045;-62
2023/12/03 05:29:30;;;;;;;11.05;4.93;;;;;;;-9.55;100.00;94262.25;5049928;28;20036;-61
2023/12/03 05:31:57;;;;;;;14.48;4.85;;;;;;;-9.58;100.00;94257.47;5051166;28;20044;-61
2023/12/03 05:34:24;;;;;;;13.20;4.47;;;;;;;-9.57;100.00;94272.38;5051000;28;20114;-62
2023/12/03 05:36:52;;;;;;;12.07;4.60;;;;;;;-9.56;100.00;94268.63;5051555;28;20052;-61
2023/12/03 05:39:21;;;;;;;10.70;4.07;;;;;;;-9.57;100.00;94272.38;5050907;28;20078;-61
2023/12/03 05:41:48;;;;;;;10.75;4.47;;;;;;;-9.66;100.00;94274.81;5049302;28;21680;-61
2023/12/03 05:44:15;;;;;;;11.50;4.47;;;;;;;-9.74;100.00;94275.41;5051208;28;20037;-62
2023/12/03 05:46:42;;;;;;;12.43;4.47;;;;;;;-9.79;100.00;94278.91;5050664;28;20391;-62
2023/12/03 05:49:10;;;;;;;10.32;4.35;;;;;;;-9.89;100.00;94279.00;5051040;28;20490;-61
2023/12/03 05:51:37;;;;;;;9.60;3.72;;;;;;;-9.86;100.00;94281.09;5050566;28;20041;-61
2023/12/03 05:54:04;;;;;;;8.00;3.78;;;;;;;-9.89;100.00;94286.97;5050721;28;20506;-62
2023/12/03 05:56:30;;;;;;;12.32;5.10;;;;;;;-9.95;100.00;94280.91;5050455;28;20048;-61
2023/12/03 05:58:57;;;;;;;12.13;4.70;;;;;;;-9.91;100.00;94283.81;5050786;28;20043;-63
2023/12/03 06:01:24;;;;;;;13.18;4.55;;;;;;;-9.92;100.00;94292.81;5048514;28;20053;-61
2023/12/03 06:03:51;;;;;;;12.35;5.03;;;;;;;-9.95;100.00;94288.09;5051142;28;20443;-61
2023/12/03 06:06:18;;;;;;;10.05;3.92;;;;;;;-9.96;100.00;94289.16;5050250;28;20049;-63
2023/12/03 06:08:45;;;;;;;12.10;4.47;;;;;;;-10.04;100.00;94303.78;5048139;28;20436;-64
2023/12/03 06:11:12;;;;;;;12.40;4.60;;;;;;;-10.06;100.00;94298.78;5050051;28;20041;-63
2023/12/03 06:13:39;;;;;;;12.75;4.97;;;;;;;-10.32;100.00;94297.38;5048384;28;20049;-64
2023/12/03 06:16:06;;;;;;;12.27;4.97;;;;;;;-10.53;100.00;94300.16;5050026;28;20037;-64
2023/12/03 06:18:32;;;;;;;15.60;6.70;;;;;;;-10.44;100.00;94305.69;5049497;28;20052;-64
2023/12/03 06:21:00;;;;;;;13.10;5.32;;;;;;;-10.44;100.00;94303.03;5049858;28;20280;-63
2023/12/03 06:23:26;;;;;;;12.88;5.10;;;;;;;-10.37;100.00;94300.88;5049066;28;20041;-62
2023/12/03 06:25:53;;;;;;;10.38;4.38;;;;;;;-10.35;100.00;94303.25;5048586;28;20033;-63
2023/12/03 06:28:20;;;;;;;11.25;4.50;;;;;;;-10.36;100.00;94299.00;5049953;28;20041;-63
2023/12/03 06:30:47;;;;;;;12.38;4.25;;;;;;;-10.33;100.00;94295.81;5047963;28;20841;-64
2023/12/03 06:33:18;;;;;;;9.65;4.00;;;;;;;-10.32;100.00;94300.03;5048343;28;20529;-63
2023/12/03 06:35:49;;;;;;;8.68;3.78;;;;;;;-10.33;100.00;94307.22;5048535;28;20434;-63
2023/12/03 06:38:16;;;;;;;10.15;4.10;;;;;;;-10.34;100.00;94302.16;5049130;28;20037;-63
2023/12/03 06:40:44;;;;;;;15.25;5.72;;;;;;;-10.37;100.00;94308.03;5049082;28;20041;-64
2023/12/03 06:43:11;;;;;;;12.23;4.70;;;;;;;-10.36;100.00;94309.63;5049541;28;20037;-63
2023/12/03 06:45:37;;;;;;;13.48;4.80;;;;;;;-10.36;100.00;94305.13;5049005;28;20053;-65
2023/12/03 06:48:05;;;;;;;11.73;4.50;;;;;;;-10.37;100.00;94313.34;5049424;28;20044;-63
2023/12/03 06:50:32;;;;;;;10.48;4.32;;;;;;;-10.41;100.00;94321.06;5048650;28;20109;-63
2023/12/03 06:53:02;;;;;;;11.57;4.10;;;;;;;-10.43;100.00;94317.88;5048965;28;20048;-63
2023/12/03 06:55:29;;;;;;;10.13;3.75;;;;;;;-10.36;100.00;94314.91;5048642;28;20049;-63
2023/12/03 06:57:56;;;;;;;9.60;3.97;;;;;;;-10.31;100.00;94325.50;5049057;28;20036;-67
2023/12/03 07:00:26;;;;;;;9.30;4.43;;;;;;;-10.37;100.00;94326.59;5048409;28;20581;-64
2023/12/03 07:02:53;;;;;;;13.52;5.10;;;;;;;-10.35;100.00;94335.09;5048912;28;20498;-63
2023/12/03 07:05:20;;;;;;;16.85;6.70;;;;;;;-10.30;100.00;94319.13;5048509;28;20503;-64
2023/12/03 07:07:51;;;;;;;17.55;7.30;;;;;;;-10.24;100.00;94328.59;5030573;28;20060;-65
2023/12/03 07:10:18;;;;;;;19.60;7.25;;;;;;;-10.18;100.00;94330.19;5048568;28;20430;-68
2023/12/03 07:12:45;;;;;;;30.10;11.40;;;;;;;-10.12;100.00;94333.59;5048695;28;20139;-66
2023/12/03 07:15:12;;;;;;;23.25;8.90;;;;;;;-10.06;100.00;94327.97;5048542;28;20048;-66
2023/12/03 07:17:39;;;;;;;31.52;7.75;;;;;;;-10.08;100.00;94331.97;5044864;28;20666;-69
2023/12/03 07:20:07;;;;;;;17.77;5.47;;;;;;;-10.05;100.00;94339.38;5048121;28;20062;-69
2023/12/03 07:22:34;;;;;;;10.93;4.78;;;;;;;-10.00;100.00;94336.69;5047217;28;20057;-65
2023/12/03 07:25:02;;;;;;;14.20;5.88;;;;;;;-10.23;100.00;94334.72;5031169;28;20098;-66
2023/12/03 07:27:29;;;;;;;24.63;8.90;;;;;;;-10.33;100.00;94336.41;5048272;28;20041;-65
2023/12/03 07:29:56;;;;;;;28.35;11.18;;;;;;;-10.20;100.00;94334.97;5049257;28;20457;-66
2023/12/03 07:32:23;;;;;;;21.58;9.38;;;;;;;-10.14;100.00;94335.72;5048497;28;20068;-67
2023/12/03 07:34:50;;;;;;;20.02;7.63;;;;;;;-10.05;100.00;94340.16;5049419;28;20059;-65
2023/12/03 07:37:17;;;;;;;17.38;6.45;;;;;;;-9.97;100.00;94344.09;5048862;28;20052;-67
2023/12/03 07:39:44;;;;;;;16.75;6.03;;;;;;;-9.87;100.00;94341.38;5030684;28;20049;-65
2023/12/03 07:42:11;;;;;;;14.40;5.28;;;;;;;-9.81;100.00;94344.78;5049186;28;20496;-65
2023/12/03 07:44:37;;;;;;;15.68;5.88;;;;;;;-9.71;100.00;94333.31;5048494;28;20068;-68
2023/12/03 07:47:04;;;;;;;16.70;5.97;;;;;;;-9.76;100.00;94336.78;5048237;28;20029;-65
2023/12/03 07:49:31;;;;;;;17.92;6.72;;;;;;;-9.68;100.00;94338.88;5048522;28;20055;-67
2023/12/03 07:51:58;;;;;;;13.95;5.80;;;;;;;-9.57;100.00;94344.09;5048813;28;20097;-65
2023/12/03 07:54:25;;;;;;;13.77;5.85;;;;;;;-9.24;100.00;94343.22;5046930;28;20424;-64
2023/12/03 07:56:51;;;;;;;14.48;6.13;;;;;;;-7.28;100.00;94336.13;5048981;28;20041;-65
2023/12/03 07:59:18;;;;;;;12.00;5.63;;;;;;;-4.19;100.00;94331.50;5048467;28;20353;-65
2023/12/03 08:01:45;;;;;;;18.13;7.78;;;;;;;-2.03;88.61;94330.69;5041804;28;20051;-61
2023/12/03 08:04:12;;;;;;;19.10;8.27;;;;;;;-0.79;70.14;94329.38;5047265;28;20098;-63
2023/12/03 08:06:39;;;;;;;21.83;9.98;;;;;;;0.19;61.74;94322.13;5050759;28;20063;-64
2023/12/03 08:09:07;;;;;;;28.08;13.63;;;;;;;1.08;56.70;94325.81;5051392;28;20067;-61
2023/12/03 08:11:35;;;;;;;24.03;13.47;;;;;;;1.69;53.96;94326.59;5050174;28;20057;-61
2023/12/03 08:14:02;;;;;;;21.90;12.10;;;;;;;2.57;51.29;94329.03;5051658;28;20114;-62
2023/12/03 08:16:29;;;;;;;21.45;12.20;;;;;;;3.23;49.45;94330.00;5050096;28;20560;-63
2023/12/03 08:18:56;;;;;;;19.75;11.48;;;;;;;3.77;47.34;94330.97;5050116;28;20037;-63
2023/12/03 08:21:23;;;;;;;22.05;11.95;;;;;;;4.58;45.18;94333.38;5050469;28;20123;-62
2023/12/03 08:23:49;;;;;;;19.00;10.63;;;;;;;4.85;43.20;94329.84;5050909;28;20082;-63
2023/12/03 08:26:17;;;;;;;16.77;9.50;;;;;;;5.52;42.79;94319.00;5051082;28;20052;-62
2023/12/03 08:28:44;;;;;;;25.30;13.43;;;;;;;4.07;42.83;94327.59;5050557;28;20041;-64
2023/12/03 08:31:11;;;;;;;29.85;15.35;;;;;;;5.62;41.52;94319.50;5050777;28;20377;-64
2023/12/03 08:33:42;;;;;;;19.02;11.13;;;;;;;6.39;40.17;94320.56;5048975;28;20441;-62
2023/12/03 08:36:17;;;;;;;18.07;10.93;;;;;;;5.76;39.40;94325.06;5045747;28;20051;-63
2023/12/03 08:38:44;;;;;;;19.23;11.50;;;;;;;3.83;42.38;94321.38;5048820;28;20037;-65
2023/12/03 08:41:11;;;;;;;19.77;11.82;;;;;;;3.18;43.40;94328.34;5049400;28;20041;-65
2023/12/03 08:43:38;;;;;;;24.50;14.60;;;;;;;4.47;43.73;94320.81;5049045;28;20053;-63
2023/12/03 08:46:05;;;;;;;22.42;13.18;;;;;;;6.44;40.68;94319.41;5050848;28;20048;-65
2023/12/03 08:48:32;;;;;;;21.07;12.27;;;;;;;7.82;38.36;94312.19;5047822;28;20045;-64
2023/12/03 08:50:59;;;;;;;19.55;12.35;;;;;;;8.58;36.87;94316.53;5049762;28;20296;-67
2023/12/03 08:53:25;;;;;;;20.48;12.27;;;;;;;6.84;36.64;94323.16;5049346;28;20072;-64
2023/12/03 08:55:52;;;;;;;22.98;13.35;;;;;;;7.59;36.36;94324.25;5048961;28;20056;-67
2023/12/03 08:58:19;;;;;;;23.25;13.90;;;;;;;8.07;35.57;94331.38;5049379;28;20056;-64
2023/12/03 09:00:46;;;;;;;26.70;15.20;;;;;;;8.51;35.51;94329.44;5047185;28;20072;-66
2023/12/03 09:03:12;;;;;;;27.42;15.38;;;;;;;9.20;34.23;94333.63;5050046;28;20049;-65
2023/12/03 09:05:43;;;;;;;26.17;15.80;;;;;;;7.26;34.71;94347.16;5049357;28;20052;-65
2023/12/03 09:08:10;;;;;;;26.05;16.20;;;;;;;8.15;34.92;94337.63;5050507;28;20037;-66
2023/12/03 09:10:37;;;;;;;28.02;16.42;;;;;;;9.06;33.58;94341.88;5049132;28;20071;-64
2023/12/03 09:13:03;;;;;;;36.97;22.73;;;;;;;7.72;33.19;94341.06;5050642;28;20044;-67
2023/12/03 09:15:30;;;;;;;32.10;20.55;;;;;;;6.65;37.31;94344.09;5048403;28;20552;-65
2023/12/03 09:17:57;;;;;;;24.52;15.30;;;;;;;10.35;32.63;94341.25;5050507;28;20070;-63
2023/12/03 09:20:24;;;;;;;24.50;16.45;;;;;;;10.58;31.38;94340.66;5049344;28;20041;-64
2023/12/03 09:22:51;;;;;;;27.45;17.58;;;;;;;11.37;31.44;94343.44;5045077;28;20047;-66
2023/12/03 09:25:18;;;;;;;33.47;20.80;;;;;;;9.92;31.17;94336.00;5049936;28;20366;-68
2023/12/03 09:27:44;;;;;;;39.75;24.73;;;;;;;9.93;31.25;94343.06;5049777;28;20045;-65
2023/12/03 09:30:11;;;;;;;32.90;20.85;;;;;;;10.00;32.00;94337.56;5048623;28;20041;-63
2023/12/03 09:32:38;;;;;;;33.67;22.38;;;;;;;11.65;29.99;94337.97;5047292;28;20051;-64
2023/12/03 09:35:05;;;;;;;30.17;19.80;;;;;;;12.07;29.17;94349.63;5049979;28;20047;-64
2023/12/03 09:37:32;;;;;;;34.10;22.07;;;;;;;11.67;30.07;94344.66;5049044;28;20592;-64
2023/12/03 09:40:02;;;;;;;28.48;18.38;;;;;;;10.49;30.02;94334.88;5047387;28;20045;-67
2023/12/03 09:42:31;;;;;;;30.67;20.05;;;;;;;11.08;29.35;94344.91;5047892;28;20048;-64
2023/12/03 09:45:04;;;;;;;25.52;17.17;;;;;;;10.79;29.55;94335.00;5049691;28;20060;-65
2023/12/03 09:47:35;;;;;;;23.88;16.52;;;;;;;10.68;30.13;94334.31;5049175;28;20061;-64
2023/12/03 09:50:04;;;;;;;21.67;15.07;;;;;;;11.69;29.12;94336.75;5048625;28;20033;-65
2023/12/03 09:52:35;;;;;;;24.13;16.15;;;;;;;11.72;28.90;94332.41;5049427;28;20424;-66
2023/12/03 09:55:02;;;;;;;24.13;16.58;;;;;;;12.44;27.72;94340.44;5049039;28;20037;-64
2023/12/03 09:57:31;;;;;;;23.70;16.48;;;;;;;11.88;29.23;94340.06;5049125;28;20444;-64
2023/12/03 10:00:00;;;;;;;23.88;16.23;;;;;;;13.13;28.24;94329.81;5049358;28;20041;-65
2023/12/03 10:02:29;;;;;;;29.13;20.10;;;;;;;13.57;27.52;94329.81;5049115;28;20052;-65
2023/12/03 10:04:56;;;;;;;25.08;17.25;;;;;;;12.77;27.47;94326.94;5047960;28;20045;-64
2023/12/03 10:07:28;;;;;;;20.95;14.85;;;;;;;9.06;31.51;94334.44;5048630;28;20041;-63
2023/12/03 10:09:59;;;;;;;20.15;14.00;;;;;;;9.20;32.25;94336.38;5049121;28;20049;-64
2023/12/03 10:12:40;;;;;;;22.25;15.13;;;;;;;10.30;31.47;94331.50;5048613;28;20052;-64
2023/12/03 10:15:08;;;;;;;21.57;14.60;;;;;;;12.39;29.41;94336.22;5046146;28;20421;-63
2023/12/03 10:17:35;;;;;;;23.42;15.80;;;;;;;13.11;28.24;94329.47;5048032;28;20056;-64
2023/12/03 10:20:21;;;;;;;21.83;14.93;;;;;;;14.63;27.84;94329.88;5049404;28;20041;-66
2023/12/03 10:22:49;;;;;;;22.02;15.50;;;;;;;14.62;26.71;94322.81;5047590;28;20434;-65
2023/12/03 10:25:25;;;;;;;23.55;16.48;;;;;;;13.89;28.10;94322.88;5048815;28;20032;-64
2023/12/03 10:27:56;;;;;;;23.30;16.13;;;;;;;14.76;26.99;94314.94;5047005;28;20632;-65
2023/12/03 10:30:23;;;;;;;24.70;15.00;;;;;;;14.96;26.73;94314.84;5048458;28;20153;-67
2023/12/03 10:32:51;;;;;;;24.15;16.55;;;;;;;15.48;26.44;94310.31;5048813;28;20042;-65
2023/12/03 10:35:21;;;;;;;22.20;16.02;;;;;;;15.41;26.03;94304.19;5047705;28;20048;-64
2023/12/03 10:37:49;;;;;;;20.38;14.18;;;;;;;14.82;26.69;94303.38;5047431;28;21857;-66
2023/12/03 10:40:18;;;;;;;19.57;14.20;;;;;;;15.30;26.69;94298.97;5048945;28;20051;-65
2023/12/03 10:42:45;;;;;;;19.55;14.13;;;;;;;15.35;26.02;94290.91;5044922;28;20103;-64
2023/12/03 10:45:14;;;;;;;19.23;14.18;;;;;;;15.41;26.25;94293.13;5048583;28;20390;-67
2023/12/03 10:47:42;;;;;;;21.85;14.43;;;;;;;14.95;26.54;94287.63;5045859;28;20051;-64
2023/12/03 10:50:11;;;;;;;20.80;14.63;;;;;;;15.45;26.57;94289.03;5036410;28;20079;-63
2023/12/03 10:52:39;;;;;;;20.87;15.60;;;;;;;14.85;27.52;94286.72;5048220;28;20497;-66
2023/12/03 10:55:08;;;;;;;22.15;14.85;;;;;;;14.78;27.21;94279.38;5046449;28;20094;-62
2023/12/03 10:57:48;;;;;;;21.13;14.60;;;;;;;14.57;27.27;94279.94;5047345;28;20045;-66
2023/12/03 11:00:17;;;;;;;22.40;16.25;;;;;;;14.12;28.10;94269.50;5047964;28;20421;-64
2023/12/03 11:02:51;;;;;;;27.55;18.77;;;;;;;12.98;29.52;94270.69;5047293;28;20056;-64
2023/12/03 11:05:33;;;;;;;20.90;14.93;;;;;;;14.11;27.93;94267.97;5048733;28;20036;-64
2023/12/03 11:08:02;;;;;;;19.02;13.32;;;;;;;15.22;27.54;94267.97;5047067;28;20037;-63
2023/12/03 11:10:29;;;;;;;17.40;13.07;;;;;;;15.16;27.10;94269.72;5047302;28;20449;-62
2023/12/03 11:12:57;;;;;;;17.75;13.25;;;;;;;14.74;27.44;94272.38;5048072;28;20037;-64
2023/12/03 11:15:24;;;;;;;19.25;13.15;;;;;;;15.65;27.41;94269.50;5047592;28;20036;-64
2023/12/03 11:17:52;;;;;;;21.83;14.87;;;;;;;16.42;26.61;94275.13;5046176;28;20048;-64